sensor_id;sensor_type;location;lat;lon;timestamp;temperature;humidity
41324;DHT22;27073;51.128;4.220;2023-06-10T00:02:11;26.30;65.80
41324;DHT22;27073;51.128;4.220;2023-06-10T00:04:37;26.30;67.50
41324;DHT22;27073;51.128;4.220;2023-06-10T00:07:04;26.40;99.90
41324;DHT22;27073;51.128;4.220;2023-06-10T00:09:34;26.10;99.90
41324;DHT22;27073;51.128;4.220;2023-06-10T00:12:05;26.10;1.00
41324;DHT22;27073;51.128;4.220;2023-06-10T00:14:34;25.90;6.60
41324;DHT22;27073;51.128;4.220;2023-06-10T00:17:00;26.10;99.90
41324;DHT22;27073;51.128;4.220;2023-06-10T00:19:26;26.10;87.90
41324;DHT22;27073;51.128;4.220;2023-06-10T00:21:56;26.00;1.00
41324;DHT22;27073;51.128;4.220;2023-06-10T00:24:22;26.10;99.90
41324;DHT22;27073;51.128;4.220;2023-06-10T00:26:47;26.10;99.90
41324;DHT22;27073;51.128;4.220;2023-06-10T00:29:13;25.80;99.90
41324;DHT22;27073;51.128;4.220;2023-06-10T00:31:40;25.80;99.90
41324;DHT22;27073;51.128;4.220;2023-06-10T00:34:07;25.90;2.40
41324;DHT22;27073;51.128;4.220;2023-06-10T00:36:33;25.70;97.00
41324;DHT22;27073;51.128;4.220;2023-06-10T00:38:58;25.70;99.90
41324;DHT22;27073;51.128;4.220;2023-06-10T00:41:24;25.60;99.90
41324;DHT22;27073;51.128;4.220;2023-06-10T00:43:52;25.60;99.90
41324;DHT22;27073;51.128;4.220;2023-06-10T00:46:18;25.50;99.90
41324;DHT22;27073;51.128;4.220;2023-06-10T00:48:45;25.50;1.00
41324;DHT22;27073;51.128;4.220;2023-06-10T00:51:11;25.40;1.00
41324;DHT22;27073;51.128;4.220;2023-06-10T00:53:39;25.50;99.90
41324;DHT22;27073;51.128;4.220;2023-06-10T00:56:07;25.30;79.50
41324;DHT22;27073;51.128;4.220;2023-06-10T00:58:35;25.40;99.90
41324;DHT22;27073;51.128;4.220;2023-06-10T01:01:01;25.50;1.00
41324;DHT22;27073;51.128;4.220;2023-06-10T01:03:27;25.50;99.90
41324;DHT22;27073;51.128;4.220;2023-06-10T01:06:32;25.30;99.90
41324;DHT22;27073;51.128;4.220;2023-06-10T01:09:18;25.50;18.20
41324;DHT22;27073;51.128;4.220;2023-06-10T01:12:12;25.40;42.00
41324;DHT22;27073;51.128;4.220;2023-06-10T01:14:40;25.10;99.90
41324;DHT22;27073;51.128;4.220;2023-06-10T01:17:10;25.20;1.00
41324;DHT22;27073;51.128;4.220;2023-06-10T01:19:36;25.10;99.90
41324;DHT22;27073;51.128;4.220;2023-06-10T01:22:03;25.10;1.00
41324;DHT22;27073;51.128;4.220;2023-06-10T01:24:29;24.90;99.90
41324;DHT22;27073;51.128;4.220;2023-06-10T01:27:00;25.00;99.90
41324;DHT22;27073;51.128;4.220;2023-06-10T01:29:37;25.10;99.90
41324;DHT22;27073;51.128;4.220;2023-06-10T01:32:37;25.20;99.90
41324;DHT22;27073;51.128;4.220;2023-06-10T01:35:08;25.20;99.90
41324;DHT22;27073;51.128;4.220;2023-06-10T01:37:38;25.20;99.90
41324;DHT22;27073;51.128;4.220;2023-06-10T01:40:06;25.20;68.50
41324;DHT22;27073;51.128;4.220;2023-06-10T01:42:34;25.10;99.90
41324;DHT22;27073;51.128;4.220;2023-06-10T01:45:00;25.20;99.90
41324;DHT22;27073;51.128;4.220;2023-06-10T01:47:26;25.00;99.90
41324;DHT22;27073;51.128;4.220;2023-06-10T01:49:52;25.00;99.90
41324;DHT22;27073;51.128;4.220;2023-06-10T01:52:18;25.00;99.90
41324;DHT22;27073;51.128;4.220;2023-06-10T01:54:43;24.90;1.00
41324;DHT22;27073;51.128;4.220;2023-06-10T01:57:09;24.90;99.90
41324;DHT22;27073;51.128;4.220;2023-06-10T01:59:36;24.80;1.00
41324;DHT22;27073;51.128;4.220;2023-06-10T02:02:04;24.80;34.30
41324;DHT22;27073;51.128;4.220;2023-06-10T02:04:31;24.90;1.00
41324;DHT22;27073;51.128;4.220;2023-06-10T02:06:58;25.00;1.00
41324;DHT22;27073;51.128;4.220;2023-06-10T02:09:24;25.00;99.90
41324;DHT22;27073;51.128;4.220;2023-06-10T02:11:50;24.90;1.00
41324;DHT22;27073;51.128;4.220;2023-06-10T02:14:18;24.80;1.00
41324;DHT22;27073;51.128;4.220;2023-06-10T02:16:44;24.90;1.00
41324;DHT22;27073;51.128;4.220;2023-06-10T02:19:12;24.90;1.00
41324;DHT22;27073;51.128;4.220;2023-06-10T02:21:38;24.90;1.00
41324;DHT22;27073;51.128;4.220;2023-06-10T02:24:04;24.90;31.70
41324;DHT22;27073;51.128;4.220;2023-06-10T02:26:30;24.80;11.50
41324;DHT22;27073;51.128;4.220;2023-06-10T02:28:59;24.60;99.90
41324;DHT22;27073;51.128;4.220;2023-06-10T02:31:26;24.70;46.10
41324;DHT22;27073;51.128;4.220;2023-06-10T02:33:51;24.50;99.90
41324;DHT22;27073;51.128;4.220;2023-06-10T02:36:17;24.50;99.90
41324;DHT22;27073;51.128;4.220;2023-06-10T02:38:43;24.40;99.90
41324;DHT22;27073;51.128;4.220;2023-06-10T02:41:09;24.30;99.90
41324;DHT22;27073;51.128;4.220;2023-06-10T02:43:35;24.40;99.90
41324;DHT22;27073;51.128;4.220;2023-06-10T02:46:01;24.10;99.90
41324;DHT22;27073;51.128;4.220;2023-06-10T02:48:28;24.00;99.90
41324;DHT22;27073;51.128;4.220;2023-06-10T02:50:54;24.10;99.90
41324;DHT22;27073;51.128;4.220;2023-06-10T02:53:36;24.00;99.90
41324;DHT22;27073;51.128;4.220;2023-06-10T02:56:07;23.90;99.90
41324;DHT22;27073;51.128;4.220;2023-06-10T02:58:32;24.00;99.90
41324;DHT22;27073;51.128;4.220;2023-06-10T03:00:58;24.10;99.90
41324;DHT22;27073;51.128;4.220;2023-06-10T03:03:25;23.90;99.90
41324;DHT22;27073;51.128;4.220;2023-06-10T03:06:10;24.10;99.90
41324;DHT22;27073;51.128;4.220;2023-06-10T03:08:36;24.20;99.90
41324;DHT22;27073;51.128;4.220;2023-06-10T03:11:10;24.20;99.90
41324;DHT22;27073;51.128;4.220;2023-06-10T03:13:41;23.80;99.90
41324;DHT22;27073;51.128;4.220;2023-06-10T03:16:09;23.90;99.90
41324;DHT22;27073;51.128;4.220;2023-06-10T03:18:37;23.90;99.90
41324;DHT22;27073;51.128;4.220;2023-06-10T03:21:04;23.70;99.90
41324;DHT22;27073;51.128;4.220;2023-06-10T03:23:30;23.80;99.90
41324;DHT22;27073;51.128;4.220;2023-06-10T03:25:55;23.80;99.90
41324;DHT22;27073;51.128;4.220;2023-06-10T03:28:22;23.90;99.90
41324;DHT22;27073;51.128;4.220;2023-06-10T03:30:48;24.10;99.90
41324;DHT22;27073;51.128;4.220;2023-06-10T03:33:16;24.10;99.90
41324;DHT22;27073;51.128;4.220;2023-06-10T03:35:42;23.90;99.90
41324;DHT22;27073;51.128;4.220;2023-06-10T03:38:08;23.90;99.90
41324;DHT22;27073;51.128;4.220;2023-06-10T03:40:34;24.00;99.90
41324;DHT22;27073;51.128;4.220;2023-06-10T03:43:01;24.00;99.90
41324;DHT22;27073;51.128;4.220;2023-06-10T03:45:28;23.80;99.90
41324;DHT22;27073;51.128;4.220;2023-06-10T03:47:54;23.70;99.90
41324;DHT22;27073;51.128;4.220;2023-06-10T03:50:24;23.80;99.90
41324;DHT22;27073;51.128;4.220;2023-06-10T03:52:50;23.50;99.90
41324;DHT22;27073;51.128;4.220;2023-06-10T03:55:19;23.40;99.90
41324;DHT22;27073;51.128;4.220;2023-06-10T03:57:48;23.60;99.90
41324;DHT22;27073;51.128;4.220;2023-06-10T04:00:16;23.60;99.90
41324;DHT22;27073;51.128;4.220;2023-06-10T04:02:43;23.50;99.90
41324;DHT22;27073;51.128;4.220;2023-06-10T04:05:16;23.40;99.90
41324;DHT22;27073;51.128;4.220;2023-06-10T04:07:43;23.40;99.90
41324;DHT22;27073;51.128;4.220;2023-06-10T04:10:11;23.30;99.90
41324;DHT22;27073;51.128;4.220;2023-06-10T04:12:37;23.40;99.90
41324;DHT22;27073;51.128;4.220;2023-06-10T04:15:04;23.30;99.90
41324;DHT22;27073;51.128;4.220;2023-06-10T04:17:30;23.30;1.00
41324;DHT22;27073;51.128;4.220;2023-06-10T04:19:56;23.30;99.90
41324;DHT22;27073;51.128;4.220;2023-06-10T04:22:24;23.40;1.00
41324;DHT22;27073;51.128;4.220;2023-06-10T04:24:49;23.10;1.00
41324;DHT22;27073;51.128;4.220;2023-06-10T04:27:17;23.30;1.00
41324;DHT22;27073;51.128;4.220;2023-06-10T04:29:42;23.40;1.00
41324;DHT22;27073;51.128;4.220;2023-06-10T04:32:08;23.30;1.00
41324;DHT22;27073;51.128;4.220;2023-06-10T04:34:35;23.40;99.90
41324;DHT22;27073;51.128;4.220;2023-06-10T04:37:01;23.40;99.90
41324;DHT22;27073;51.128;4.220;2023-06-10T04:39:27;23.50;1.00
41324;DHT22;27073;51.128;4.220;2023-06-10T04:41:53;23.60;99.90
41324;DHT22;27073;51.128;4.220;2023-06-10T04:44:19;23.50;1.00
41324;DHT22;27073;51.128;4.220;2023-06-10T04:46:45;23.40;1.00
41324;DHT22;27073;51.128;4.220;2023-06-10T04:49:11;23.50;1.00
41324;DHT22;27073;51.128;4.220;2023-06-10T04:51:40;23.30;1.00
41324;DHT22;27073;51.128;4.220;2023-06-10T04:54:07;23.30;1.00
41324;DHT22;27073;51.128;4.220;2023-06-10T04:56:33;23.40;1.00
41324;DHT22;27073;51.128;4.220;2023-06-10T04:58:59;23.20;1.00
41324;DHT22;27073;51.128;4.220;2023-06-10T05:01:25;23.40;1.00
41324;DHT22;27073;51.128;4.220;2023-06-10T05:03:51;23.40;1.00
41324;DHT22;27073;51.128;4.220;2023-06-10T05:06:16;23.40;1.00
41324;DHT22;27073;51.128;4.220;2023-06-10T05:08:42;23.20;1.00
41324;DHT22;27073;51.128;4.220;2023-06-10T05:11:08;23.30;1.00
41324;DHT22;27073;51.128;4.220;2023-06-10T05:13:34;23.30;1.00
41324;DHT22;27073;51.128;4.220;2023-06-10T05:15:59;23.10;1.00
41324;DHT22;27073;51.128;4.220;2023-06-10T05:18:25;23.30;1.00
41324;DHT22;27073;51.128;4.220;2023-06-10T05:20:51;23.50;1.00
41324;DHT22;27073;51.128;4.220;2023-06-10T05:23:16;23.60;1.00
41324;DHT22;27073;51.128;4.220;2023-06-10T05:25:42;23.50;99.90
41324;DHT22;27073;51.128;4.220;2023-06-10T05:28:08;23.20;1.00
41324;DHT22;27073;51.128;4.220;2023-06-10T05:30:37;23.20;1.00
41324;DHT22;27073;51.128;4.220;2023-06-10T05:33:04;23.30;1.00
41324;DHT22;27073;51.128;4.220;2023-06-10T05:35:29;23.30;1.00
41324;DHT22;27073;51.128;4.220;2023-06-10T05:37:55;23.20;1.00
41324;DHT22;27073;51.128;4.220;2023-06-10T05:40:21;23.30;1.00
41324;DHT22;27073;51.128;4.220;2023-06-10T05:42:47;23.20;1.00
41324;DHT22;27073;51.128;4.220;2023-06-10T05:45:12;23.30;1.00
41324;DHT22;27073;51.128;4.220;2023-06-10T05:47:38;23.30;1.00
41324;DHT22;27073;51.128;4.220;2023-06-10T05:50:05;23.30;1.00
41324;DHT22;27073;51.128;4.220;2023-06-10T05:52:37;23.30;1.00
41324;DHT22;27073;51.128;4.220;2023-06-10T05:55:06;23.20;1.00
41324;DHT22;27073;51.128;4.220;2023-06-10T05:57:32;23.10;1.00
41324;DHT22;27073;51.128;4.220;2023-06-10T05:59:58;23.30;1.00
41324;DHT22;27073;51.128;4.220;2023-06-10T06:02:23;23.60;1.00
41324;DHT22;27073;51.128;4.220;2023-06-10T06:04:49;23.60;1.00
41324;DHT22;27073;51.128;4.220;2023-06-10T06:07:15;23.70;1.00
41324;DHT22;27073;51.128;4.220;2023-06-10T06:09:40;23.60;1.00
41324;DHT22;27073;51.128;4.220;2023-06-10T06:12:07;23.60;1.00
41324;DHT22;27073;51.128;4.220;2023-06-10T06:14:37;23.40;1.00
41324;DHT22;27073;51.128;4.220;2023-06-10T06:17:03;23.70;1.00
41324;DHT22;27073;51.128;4.220;2023-06-10T06:19:29;23.80;1.00
41324;DHT22;27073;51.128;4.220;2023-06-10T06:21:54;23.90;1.00
41324;DHT22;27073;51.128;4.220;2023-06-10T06:24:20;24.00;99.90
41324;DHT22;27073;51.128;4.220;2023-06-10T06:26:46;24.20;99.90
41324;DHT22;27073;51.128;4.220;2023-06-10T06:29:12;24.20;1.00
41324;DHT22;27073;51.128;4.220;2023-06-10T06:31:37;24.20;99.90
41324;DHT22;27073;51.128;4.220;2023-06-10T06:34:03;24.10;99.90
41324;DHT22;27073;51.128;4.220;2023-06-10T06:36:29;24.10;99.90
41324;DHT22;27073;51.128;4.220;2023-06-10T06:38:55;24.20;1.00
41324;DHT22;27073;51.128;4.220;2023-06-10T06:41:22;24.10;99.90
41324;DHT22;27073;51.128;4.220;2023-06-10T06:43:48;24.10;1.00
41324;DHT22;27073;51.128;4.220;2023-06-10T06:46:23;24.10;99.90
41324;DHT22;27073;51.128;4.220;2023-06-10T06:48:49;24.00;1.00
41324;DHT22;27073;51.128;4.220;2023-06-10T06:51:15;24.00;99.90
41324;DHT22;27073;51.128;4.220;2023-06-10T06:53:40;24.10;1.00
41324;DHT22;27073;51.128;4.220;2023-06-10T06:56:10;24.10;1.00
41324;DHT22;27073;51.128;4.220;2023-06-10T06:58:36;24.20;99.90
41324;DHT22;27073;51.128;4.220;2023-06-10T07:01:02;24.20;99.90
41324;DHT22;27073;51.128;4.220;2023-06-10T07:03:28;24.30;99.90
41324;DHT22;27073;51.128;4.220;2023-06-10T07:05:53;24.30;99.90
41324;DHT22;27073;51.128;4.220;2023-06-10T07:08:19;24.40;99.90
41324;DHT22;27073;51.128;4.220;2023-06-10T07:10:44;24.50;99.90
41324;DHT22;27073;51.128;4.220;2023-06-10T07:13:10;24.60;99.90
41324;DHT22;27073;51.128;4.220;2023-06-10T07:15:36;24.70;99.90
41324;DHT22;27073;51.128;4.220;2023-06-10T07:18:01;24.80;99.90
41324;DHT22;27073;51.128;4.220;2023-06-10T07:20:27;24.80;99.90
41324;DHT22;27073;51.128;4.220;2023-06-10T07:22:53;24.80;99.90
41324;DHT22;27073;51.128;4.220;2023-06-10T07:25:19;24.80;99.90
41324;DHT22;27073;51.128;4.220;2023-06-10T07:27:44;24.80;99.90
41324;DHT22;27073;51.128;4.220;2023-06-10T07:30:10;24.80;99.90
41324;DHT22;27073;51.128;4.220;2023-06-10T07:32:36;24.80;99.90
41324;DHT22;27073;51.128;4.220;2023-06-10T07:35:02;24.80;99.90
41324;DHT22;27073;51.128;4.220;2023-06-10T07:37:28;25.00;99.90
41324;DHT22;27073;51.128;4.220;2023-06-10T07:39:55;25.20;99.90
41324;DHT22;27073;51.128;4.220;2023-06-10T07:42:20;25.00;99.90
41324;DHT22;27073;51.128;4.220;2023-06-10T07:44:46;25.10;99.90
41324;DHT22;27073;51.128;4.220;2023-06-10T07:47:12;25.20;99.90
41324;DHT22;27073;51.128;4.220;2023-06-10T07:49:38;25.30;99.90
41324;DHT22;27073;51.128;4.220;2023-06-10T07:52:04;25.40;99.90
41324;DHT22;27073;51.128;4.220;2023-06-10T07:54:30;25.50;99.90
41324;DHT22;27073;51.128;4.220;2023-06-10T07:56:55;25.60;99.90
41324;DHT22;27073;51.128;4.220;2023-06-10T07:59:21;25.60;99.90
41324;DHT22;27073;51.128;4.220;2023-06-10T08:01:47;25.80;99.90
41324;DHT22;27073;51.128;4.220;2023-06-10T08:04:12;25.80;99.90
41324;DHT22;27073;51.128;4.220;2023-06-10T08:06:38;25.90;99.90
41324;DHT22;27073;51.128;4.220;2023-06-10T08:09:04;26.00;99.90
41324;DHT22;27073;51.128;4.220;2023-06-10T08:11:29;26.10;94.40
41324;DHT22;27073;51.128;4.220;2023-06-10T08:13:55;26.10;80.40
41324;DHT22;27073;51.128;4.220;2023-06-10T08:16:21;26.10;99.90
41324;DHT22;27073;51.128;4.220;2023-06-10T08:18:47;26.20;96.80
41324;DHT22;27073;51.128;4.220;2023-06-10T08:21:12;26.30;93.80
41324;DHT22;27073;51.128;4.220;2023-06-10T08:23:38;26.50;42.50
41324;DHT22;27073;51.128;4.220;2023-06-10T08:26:04;26.50;36.10
41324;DHT22;27073;51.128;4.220;2023-06-10T08:28:30;26.40;79.50
41324;DHT22;27073;51.128;4.220;2023-06-10T08:30:56;26.40;54.00
41324;DHT22;27073;51.128;4.220;2023-06-10T08:33:21;26.60;1.00
41324;DHT22;27073;51.128;4.220;2023-06-10T08:35:47;26.60;1.00
41324;DHT22;27073;51.128;4.220;2023-06-10T08:38:13;26.70;99.90
41324;DHT22;27073;51.128;4.220;2023-06-10T08:40:38;26.80;99.90
41324;DHT22;27073;51.128;4.220;2023-06-10T08:45:57;26.80;99.90
41324;DHT22;27073;51.128;4.220;2023-06-10T08:48:29;26.70;94.10
41324;DHT22;27073;51.128;4.220;2023-06-10T08:50:57;26.60;99.90
41324;DHT22;27073;51.128;4.220;2023-06-10T08:53:24;26.80;13.30
41324;DHT22;27073;51.128;4.220;2023-06-10T08:55:51;26.80;1.00
41324;DHT22;27073;51.128;4.220;2023-06-10T08:58:19;26.90;70.20
41324;DHT22;27073;51.128;4.220;2023-06-10T09:00:46;27.10;53.10
41324;DHT22;27073;51.128;4.220;2023-06-10T09:03:12;27.20;99.90
41324;DHT22;27073;51.128;4.220;2023-06-10T09:05:38;27.20;99.90
41324;DHT22;27073;51.128;4.220;2023-06-10T09:08:06;27.30;98.90
41324;DHT22;27073;51.128;4.220;2023-06-10T09:10:32;27.20;1.00
41324;DHT22;27073;51.128;4.220;2023-06-10T09:12:58;27.30;99.90
41324;DHT22;27073;51.128;4.220;2023-06-10T09:15:24;27.40;99.90
41324;DHT22;27073;51.128;4.220;2023-06-10T09:17:50;27.40;5.10
41324;DHT22;27073;51.128;4.220;2023-06-10T09:20:17;27.60;91.60
41324;DHT22;27073;51.128;4.220;2023-06-10T09:22:43;27.70;31.70
41324;DHT22;27073;51.128;4.220;2023-06-10T09:25:10;27.70;9.80
41324;DHT22;27073;51.128;4.220;2023-06-10T09:27:50;27.80;99.90
41324;DHT22;27073;51.128;4.220;2023-06-10T09:30:32;27.90;99.90
41324;DHT22;27073;51.128;4.220;2023-06-10T09:33:01;27.80;99.90
41324;DHT22;27073;51.128;4.220;2023-06-10T09:35:29;27.80;1.00
41324;DHT22;27073;51.128;4.220;2023-06-10T09:38:00;27.90;50.30
41324;DHT22;27073;51.128;4.220;2023-06-10T09:40:26;28.10;99.90
41324;DHT22;27073;51.128;4.220;2023-06-10T09:42:55;28.20;1.00
41324;DHT22;27073;51.128;4.220;2023-06-10T09:45:21;28.20;1.00
41324;DHT22;27073;51.128;4.220;2023-06-10T09:47:50;28.20;99.90
41324;DHT22;27073;51.128;4.220;2023-06-10T09:50:17;28.20;99.90
41324;DHT22;27073;51.128;4.220;2023-06-10T09:52:42;28.10;99.90
41324;DHT22;27073;51.128;4.220;2023-06-10T09:55:09;28.30;99.90
41324;DHT22;27073;51.128;4.220;2023-06-10T09:57:36;28.40;99.90
41324;DHT22;27073;51.128;4.220;2023-06-10T10:00:09;28.50;99.90
41324;DHT22;27073;51.128;4.220;2023-06-10T10:02:45;28.60;99.90
41324;DHT22;27073;51.128;4.220;2023-06-10T10:05:13;28.60;99.90
41324;DHT22;27073;51.128;4.220;2023-06-10T10:07:40;28.60;99.90
41324;DHT22;27073;51.128;4.220;2023-06-10T10:10:06;28.70;99.90
41324;DHT22;27073;51.128;4.220;2023-06-10T10:12:34;28.70;99.90
41324;DHT22;27073;51.128;4.220;2023-06-10T10:15:00;28.90;99.90
41324;DHT22;27073;51.128;4.220;2023-06-10T10:17:28;29.00;99.90
41324;DHT22;27073;51.128;4.220;2023-06-10T10:20:00;29.00;99.90
41324;DHT22;27073;51.128;4.220;2023-06-10T10:22:31;29.10;82.20
41324;DHT22;27073;51.128;4.220;2023-06-10T10:25:02;29.30;1.00
41324;DHT22;27073;51.128;4.220;2023-06-10T10:27:33;29.40;1.00
41324;DHT22;27073;51.128;4.220;2023-06-10T10:30:02;29.50;1.00
41324;DHT22;27073;51.128;4.220;2023-06-10T10:32:35;29.50;99.90
41324;DHT22;27073;51.128;4.220;2023-06-10T10:35:09;29.50;99.90
41324;DHT22;27073;51.128;4.220;2023-06-10T10:37:37;29.60;99.90
41324;DHT22;27073;51.128;4.220;2023-06-10T10:40:06;29.80;99.90
41324;DHT22;27073;51.128;4.220;2023-06-10T10:42:34;29.80;1.00
41324;DHT22;27073;51.128;4.220;2023-06-10T10:45:01;29.90;1.00
41324;DHT22;27073;51.128;4.220;2023-06-10T10:47:28;30.00;1.00
41324;DHT22;27073;51.128;4.220;2023-06-10T10:49:56;29.90;99.90
41324;DHT22;27073;51.128;4.220;2023-06-10T10:52:26;29.90;99.90
41324;DHT22;27073;51.128;4.220;2023-06-10T10:54:53;30.10;99.90
41324;DHT22;27073;51.128;4.220;2023-06-10T10:57:21;30.10;99.90
41324;DHT22;27073;51.128;4.220;2023-06-10T10:59:57;30.30;99.90
41324;DHT22;27073;51.128;4.220;2023-06-10T11:02:43;30.40;99.90
41324;DHT22;27073;51.128;4.220;2023-06-10T11:05:10;30.50;99.90
41324;DHT22;27073;51.128;4.220;2023-06-10T11:07:37;30.50;99.90
41324;DHT22;27073;51.128;4.220;2023-06-10T11:10:10;30.50;99.90
41324;DHT22;27073;51.128;4.220;2023-06-10T11:15:12;30.50;99.90
41324;DHT22;27073;51.128;4.220;2023-06-10T11:20:44;30.90;99.90
41324;DHT22;27073;51.128;4.220;2023-06-10T11:23:10;31.10;99.90
41324;DHT22;27073;51.128;4.220;2023-06-10T11:25:49;31.10;71.90
41324;DHT22;27073;51.128;4.220;2023-06-10T11:28:19;31.30;93.20
41324;DHT22;27073;51.128;4.220;2023-06-10T11:30:45;31.30;36.60
41324;DHT22;27073;51.128;4.220;2023-06-10T11:33:17;31.40;37.00
41324;DHT22;27073;51.128;4.220;2023-06-10T11:35:43;31.40;65.50
41324;DHT22;27073;51.128;4.220;2023-06-10T11:38:09;31.50;20.40
41324;DHT22;27073;51.128;4.220;2023-06-10T11:40:36;31.60;8.90
41324;DHT22;27073;51.128;4.220;2023-06-10T11:43:04;31.70;1.00
41324;DHT22;27073;51.128;4.220;2023-06-10T11:45:30;31.80;1.00
41324;DHT22;27073;51.128;4.220;2023-06-10T11:47:59;31.80;1.00
41324;DHT22;27073;51.128;4.220;2023-06-10T11:50:43;31.90;1.00
41324;DHT22;27073;51.128;4.220;2023-06-10T11:53:08;31.90;1.00
41324;DHT22;27073;51.128;4.220;2023-06-10T11:55:41;32.10;1.00
41324;DHT22;27073;51.128;4.220;2023-06-10T11:58:18;32.00;99.90
41324;DHT22;27073;51.128;4.220;2023-06-10T12:00:51;32.10;99.90
41324;DHT22;27073;51.128;4.220;2023-06-10T12:03:19;32.20;99.90
41324;DHT22;27073;51.128;4.220;2023-06-10T12:08:25;32.60;99.90
41324;DHT22;27073;51.128;4.220;2023-06-10T12:10:51;32.70;99.90
41324;DHT22;27073;51.128;4.220;2023-06-10T12:13:20;32.80;99.90
41324;DHT22;27073;51.128;4.220;2023-06-10T12:15:46;32.90;99.90
41324;DHT22;27073;51.128;4.220;2023-06-10T12:18:20;32.80;99.90
41324;DHT22;27073;51.128;4.220;2023-06-10T12:20:46;32.80;99.90
41324;DHT22;27073;51.128;4.220;2023-06-10T12:23:14;33.00;99.90
41324;DHT22;27073;51.128;4.220;2023-06-10T12:25:53;33.10;99.90
41324;DHT22;27073;51.128;4.220;2023-06-10T12:28:26;33.20;99.90
41324;DHT22;27073;51.128;4.220;2023-06-10T12:31:06;33.30;99.90
41324;DHT22;27073;51.128;4.220;2023-06-10T12:33:33;33.20;99.90
41324;DHT22;27073;51.128;4.220;2023-06-10T12:35:59;33.10;99.90
41324;DHT22;27073;51.128;4.220;2023-06-10T12:38:26;33.30;99.90
41324;DHT22;27073;51.128;4.220;2023-06-10T12:41:01;33.50;99.90
41324;DHT22;27073;51.128;4.220;2023-06-10T12:43:27;33.70;99.90
41324;DHT22;27073;51.128;4.220;2023-06-10T12:45:53;33.80;99.90
41324;DHT22;27073;51.128;4.220;2023-06-10T12:48:22;33.80;99.90
41324;DHT22;27073;51.128;4.220;2023-06-10T12:50:53;33.60;99.90
41324;DHT22;27073;51.128;4.220;2023-06-10T12:53:19;33.50;99.90
41324;DHT22;27073;51.128;4.220;2023-06-10T12:55:46;33.60;99.90
41324;DHT22;27073;51.128;4.220;2023-06-10T12:58:13;33.90;99.90
41324;DHT22;27073;51.128;4.220;2023-06-10T13:00:39;34.00;99.90
41324;DHT22;27073;51.128;4.220;2023-06-10T13:03:05;33.90;99.90
41324;DHT22;27073;51.128;4.220;2023-06-10T13:05:32;33.90;99.90
41324;DHT22;27073;51.128;4.220;2023-06-10T13:07:58;33.70;99.90
41324;DHT22;27073;51.128;4.220;2023-06-10T13:10:24;33.60;99.90
41324;DHT22;27073;51.128;4.220;2023-06-10T13:12:51;34.00;99.90
41324;DHT22;27073;51.128;4.220;2023-06-10T13:15:17;34.30;99.90
41324;DHT22;27073;51.128;4.220;2023-06-10T13:17:44;34.50;99.90
41324;DHT22;27073;51.128;4.220;2023-06-10T13:20:11;34.30;99.90
41324;DHT22;27073;51.128;4.220;2023-06-10T13:22:37;34.40;99.90
41324;DHT22;27073;51.128;4.220;2023-06-10T13:25:03;34.40;99.90
41324;DHT22;27073;51.128;4.220;2023-06-10T13:27:29;34.50;99.90
41324;DHT22;27073;51.128;4.220;2023-06-10T13:29:55;34.70;99.90
41324;DHT22;27073;51.128;4.220;2023-06-10T13:32:20;34.20;99.90
41324;DHT22;27073;51.128;4.220;2023-06-10T13:34:46;34.10;99.90
41324;DHT22;27073;51.128;4.220;2023-06-10T13:37:13;34.00;99.90
41324;DHT22;27073;51.128;4.220;2023-06-10T13:39:39;34.20;99.90
41324;DHT22;27073;51.128;4.220;2023-06-10T13:42:05;34.30;99.90
41324;DHT22;27073;51.128;4.220;2023-06-10T13:44:33;34.30;99.90
41324;DHT22;27073;51.128;4.220;2023-06-10T13:47:04;34.50;99.90
41324;DHT22;27073;51.128;4.220;2023-06-10T13:49:30;34.70;99.90
41324;DHT22;27073;51.128;4.220;2023-06-10T13:51:56;35.20;99.90
41324;DHT22;27073;51.128;4.220;2023-06-10T13:54:22;36.10;99.90
41324;DHT22;27073;51.128;4.220;2023-06-10T13:56:48;37.00;99.90
41324;DHT22;27073;51.128;4.220;2023-06-10T13:59:14;38.20;99.90
41324;DHT22;27073;51.128;4.220;2023-06-10T14:01:40;38.60;99.90
41324;DHT22;27073;51.128;4.220;2023-06-10T14:04:08;39.10;99.90
41324;DHT22;27073;51.128;4.220;2023-06-10T14:06:34;40.10;99.90
41324;DHT22;27073;51.128;4.220;2023-06-10T14:09:00;41.50;99.90
41324;DHT22;27073;51.128;4.220;2023-06-10T14:11:26;42.40;99.90
41324;DHT22;27073;51.128;4.220;2023-06-10T14:13:52;42.60;93.00
41324;DHT22;27073;51.128;4.220;2023-06-10T14:16:17;44.10;90.20
41324;DHT22;27073;51.128;4.220;2023-06-10T14:18:43;43.60;69.40
41324;DHT22;27073;51.128;4.220;2023-06-10T14:21:09;44.50;62.00
41324;DHT22;27073;51.128;4.220;2023-06-10T14:23:35;44.00;45.70
41324;DHT22;27073;51.128;4.220;2023-06-10T14:26:00;44.30;40.10
41324;DHT22;27073;51.128;4.220;2023-06-10T14:28:28;44.20;31.80
41324;DHT22;27073;51.128;4.220;2023-06-10T14:30:54;44.40;29.80
41324;DHT22;27073;51.128;4.220;2023-06-10T14:33:20;44.80;26.50
41324;DHT22;27073;51.128;4.220;2023-06-10T14:35:48;44.20;19.50
41324;DHT22;27073;51.128;4.220;2023-06-10T14:38:14;43.00;13.10
41324;DHT22;27073;51.128;4.220;2023-06-10T14:40:39;42.10;10.30
41324;DHT22;27073;51.128;4.220;2023-06-10T14:43:05;43.40;14.00
41324;DHT22;27073;51.128;4.220;2023-06-10T14:45:39;44.70;18.50
41324;DHT22;27073;51.128;4.220;2023-06-10T14:48:06;43.90;10.50
41324;DHT22;27073;51.128;4.220;2023-06-10T14:50:34;44.80;11.90
41324;DHT22;27073;51.128;4.220;2023-06-10T14:53:00;44.90;9.10
41324;DHT22;27073;51.128;4.220;2023-06-10T14:55:25;45.50;9.20
41324;DHT22;27073;51.128;4.220;2023-06-10T14:57:51;45.50;6.10
41324;DHT22;27073;51.128;4.220;2023-06-10T15:00:17;46.70;7.60
41324;DHT22;27073;51.128;4.220;2023-06-10T15:02:47;46.80;5.00
41324;DHT22;27073;51.128;4.220;2023-06-10T15:05:14;46.70;1.60
41324;DHT22;27073;51.128;4.220;2023-06-10T15:07:41;46.70;1.00
41324;DHT22;27073;51.128;4.220;2023-06-10T15:10:07;46.60;1.00
41324;DHT22;27073;51.128;4.220;2023-06-10T15:12:34;45.60;1.00
41324;DHT22;27073;51.128;4.220;2023-06-10T15:15:00;45.20;1.00
41324;DHT22;27073;51.128;4.220;2023-06-10T15:17:26;45.50;1.00
41324;DHT22;27073;51.128;4.220;2023-06-10T15:19:51;46.10;1.00
41324;DHT22;27073;51.128;4.220;2023-06-10T15:22:17;45.60;1.00
41324;DHT22;27073;51.128;4.220;2023-06-10T15:24:43;45.30;1.00
41324;DHT22;27073;51.128;4.220;2023-06-10T15:27:09;45.10;1.00
41324;DHT22;27073;51.128;4.220;2023-06-10T15:29:35;44.80;1.00
41324;DHT22;27073;51.128;4.220;2023-06-10T15:32:01;45.00;1.00
41324;DHT22;27073;51.128;4.220;2023-06-10T15:34:26;45.00;1.00
41324;DHT22;27073;51.128;4.220;2023-06-10T15:36:52;45.70;1.00
41324;DHT22;27073;51.128;4.220;2023-06-10T15:39:18;46.50;1.00
41324;DHT22;27073;51.128;4.220;2023-06-10T15:41:44;46.10;1.00
41324;DHT22;27073;51.128;4.220;2023-06-10T15:44:10;45.30;1.00
41324;DHT22;27073;51.128;4.220;2023-06-10T15:46:36;45.50;1.00
41324;DHT22;27073;51.128;4.220;2023-06-10T15:49:02;45.50;1.00